sensor_id;sensor_type;location;lat;lon;timestamp;P1;durP1;ratioP1;P2;durP2;ratioP2
16101;SDS011;56411;52.964;10.540;2022-12-29T00:01:29;9.03;;;4.10;;
16101;SDS011;56411;52.964;10.540;2022-12-29T00:03:56;8.60;;;4.00;;
16101;SDS011;56411;52.964;10.540;2022-12-29T00:06:23;8.67;;;3.90;;
16101;SDS011;56411;52.964;10.540;2022-12-29T00:08:50;7.80;;;3.67;;
16101;SDS011;56411;52.964;10.540;2022-12-29T00:11:18;8.40;;;3.90;;
16101;SDS011;56411;52.964;10.540;2022-12-29T00:13:46;10.53;;;4.00;;
16101;SDS011;56411;52.964;10.540;2022-12-29T00:16:32;7.90;;;3.83;;
16101;SDS011;56411;52.964;10.540;2022-12-29T00:19:00;10.13;;;3.83;;
16101;SDS011;56411;52.964;10.540;2022-12-29T00:21:27;7.13;;;3.70;;
16101;SDS011;56411;52.964;10.540;2022-12-29T00:24:13;9.07;;;3.93;;
16101;SDS011;56411;52.964;10.540;2022-12-29T00:27:07;8.23;;;3.90;;
16101;SDS011;56411;52.964;10.540;2022-12-29T00:29:54;10.70;;;3.70;;
16101;SDS011;56411;52.964;10.540;2022-12-29T00:32:42;8.80;;;3.90;;
16101;SDS011;56411;52.964;10.540;2022-12-29T00:35:27;9.67;;;3.93;;
16101;SDS011;56411;52.964;10.540;2022-12-29T00:37:56;9.27;;;4.00;;
16101;SDS011;56411;52.964;10.540;2022-12-29T00:40:44;7.10;;;3.40;;
16101;SDS011;56411;52.964;10.540;2022-12-29T00:43:28;7.37;;;3.10;;
16101;SDS011;56411;52.964;10.540;2022-12-29T00:46:13;7.80;;;3.30;;
16101;SDS011;56411;52.964;10.540;2022-12-29T00:48:41;8.33;;;3.53;;
16101;SDS011;56411;52.964;10.540;2022-12-29T00:51:25;6.43;;;3.43;;
16101;SDS011;56411;52.964;10.540;2022-12-29T00:53:52;6.97;;;3.30;;
16101;SDS011;56411;52.964;10.540;2022-12-29T00:56:19;7.07;;;3.23;;
16101;SDS011;56411;52.964;10.540;2022-12-29T00:58:46;8.10;;;3.60;;
16101;SDS011;56411;52.964;10.540;2022-12-29T01:01:13;6.83;;;3.23;;
16101;SDS011;56411;52.964;10.540;2022-12-29T01:03:42;6.53;;;3.47;;
16101;SDS011;56411;52.964;10.540;2022-12-29T01:06:10;8.47;;;3.30;;
16101;SDS011;56411;52.964;10.540;2022-12-29T01:08:37;8.63;;;3.83;;
16101;SDS011;56411;52.964;10.540;2022-12-29T01:11:05;7.20;;;3.23;;
16101;SDS011;56411;52.964;10.540;2022-12-29T01:13:32;7.70;;;3.50;;
16101;SDS011;56411;52.964;10.540;2022-12-29T01:16:03;7.00;;;3.30;;
16101;SDS011;56411;52.964;10.540;2022-12-29T01:18:31;7.33;;;3.60;;
16101;SDS011;56411;52.964;10.540;2022-12-29T01:21:00;7.40;;;3.40;;
16101;SDS011;56411;52.964;10.540;2022-12-29T01:23:28;6.77;;;3.40;;
16101;SDS011;56411;52.964;10.540;2022-12-29T01:25:57;6.53;;;3.13;;
16101;SDS011;56411;52.964;10.540;2022-12-29T01:28:34;5.90;;;3.07;;
16101;SDS011;56411;52.964;10.540;2022-12-29T01:31:01;8.93;;;3.50;;
16101;SDS011;56411;52.964;10.540;2022-12-29T01:33:28;7.30;;;3.27;;
16101;SDS011;56411;52.964;10.540;2022-12-29T01:35:54;6.27;;;3.30;;
16101;SDS011;56411;52.964;10.540;2022-12-29T01:38:27;6.43;;;3.10;;
16101;SDS011;56411;52.964;10.540;2022-12-29T01:40:54;6.43;;;3.00;;
16101;SDS011;56411;52.964;10.540;2022-12-29T01:43:20;6.93;;;3.40;;
16101;SDS011;56411;52.964;10.540;2022-12-29T01:45:48;6.93;;;3.20;;
16101;SDS011;56411;52.964;10.540;2022-12-29T01:48:17;6.87;;;2.87;;
16101;SDS011;56411;52.964;10.540;2022-12-29T01:50:46;7.17;;;3.37;;
16101;SDS011;56411;52.964;10.540;2022-12-29T01:53:17;6.10;;;3.10;;
16101;SDS011;56411;52.964;10.540;2022-12-29T01:55:50;7.20;;;2.97;;
16101;SDS011;56411;52.964;10.540;2022-12-29T01:58:22;6.60;;;3.03;;
16101;SDS011;56411;52.964;10.540;2022-12-29T02:00:54;7.93;;;3.47;;
16101;SDS011;56411;52.964;10.540;2022-12-29T02:03:21;8.00;;;3.43;;
16101;SDS011;56411;52.964;10.540;2022-12-29T02:05:52;5.80;;;3.13;;
16101;SDS011;56411;52.964;10.540;2022-12-29T02:08:24;7.00;;;3.40;;
16101;SDS011;56411;52.964;10.540;2022-12-29T02:10:56;8.53;;;3.60;;
16101;SDS011;56411;52.964;10.540;2022-12-29T02:13:25;9.20;;;3.30;;
16101;SDS011;56411;52.964;10.540;2022-12-29T02:15:56;6.40;;;3.20;;
16101;SDS011;56411;52.964;10.540;2022-12-29T02:18:32;6.00;;;3.03;;
16101;SDS011;56411;52.964;10.540;2022-12-29T02:24:33;9.63;;;3.50;;
16101;SDS011;56411;52.964;10.540;2022-12-29T02:27:26;5.73;;;3.13;;
16101;SDS011;56411;52.964;10.540;2022-12-29T02:30:27;5.17;;;2.73;;
16101;SDS011;56411;52.964;10.540;2022-12-29T02:33:13;4.53;;;2.80;;
16101;SDS011;56411;52.964;10.540;2022-12-29T02:36:00;6.90;;;3.00;;
16101;SDS011;56411;52.964;10.540;2022-12-29T02:38:38;5.20;;;2.67;;
16101;SDS011;56411;52.964;10.540;2022-12-29T02:41:16;7.13;;;2.80;;
16101;SDS011;56411;52.964;10.540;2022-12-29T02:43:49;5.60;;;2.80;;
16101;SDS011;56411;52.964;10.540;2022-12-29T02:46:21;5.30;;;2.70;;
16101;SDS011;56411;52.964;10.540;2022-12-29T02:48:54;5.27;;;2.90;;
16101;SDS011;56411;52.964;10.540;2022-12-29T02:51:31;5.77;;;2.90;;
16101;SDS011;56411;52.964;10.540;2022-12-29T02:54:02;5.27;;;2.50;;
16101;SDS011;56411;52.964;10.540;2022-12-29T02:56:47;6.10;;;2.63;;
16101;SDS011;56411;52.964;10.540;2022-12-29T02:59:14;6.03;;;2.70;;
16101;SDS011;56411;52.964;10.540;2022-12-29T03:01:53;6.40;;;2.80;;
16101;SDS011;56411;52.964;10.540;2022-12-29T03:04:46;4.53;;;2.53;;
16101;SDS011;56411;52.964;10.540;2022-12-29T03:07:22;5.30;;;2.43;;
16101;SDS011;56411;52.964;10.540;2022-12-29T03:09:57;5.07;;;2.50;;
16101;SDS011;56411;52.964;10.540;2022-12-29T03:12:31;5.17;;;2.60;;
16101;SDS011;56411;52.964;10.540;2022-12-29T03:15:21;5.40;;;2.70;;
16101;SDS011;56411;52.964;10.540;2022-12-29T03:18:15;5.30;;;2.70;;
16101;SDS011;56411;52.964;10.540;2022-12-29T03:20:49;4.30;;;2.60;;
16101;SDS011;56411;52.964;10.540;2022-12-29T03:23:19;3.23;;;2.10;;
16101;SDS011;56411;52.964;10.540;2022-12-29T03:25:50;5.53;;;2.60;;
16101;SDS011;56411;52.964;10.540;2022-12-29T03:28:21;5.43;;;2.43;;
16101;SDS011;56411;52.964;10.540;2022-12-29T03:30:50;5.83;;;2.70;;
16101;SDS011;56411;52.964;10.540;2022-12-29T03:33:20;5.23;;;2.53;;
16101;SDS011;56411;52.964;10.540;2022-12-29T03:35:50;5.13;;;2.50;;
16101;SDS011;56411;52.964;10.540;2022-12-29T03:38:24;4.40;;;2.30;;
16101;SDS011;56411;52.964;10.540;2022-12-29T03:40:57;4.97;;;2.50;;
16101;SDS011;56411;52.964;10.540;2022-12-29T03:43:26;4.53;;;2.40;;
16101;SDS011;56411;52.964;10.540;2022-12-29T03:45:54;4.30;;;2.40;;
16101;SDS011;56411;52.964;10.540;2022-12-29T03:48:22;5.10;;;2.20;;
16101;SDS011;56411;52.964;10.540;2022-12-29T03:50:49;5.93;;;2.30;;
16101;SDS011;56411;52.964;10.540;2022-12-29T03:53:16;3.83;;;2.20;;
16101;SDS011;56411;52.964;10.540;2022-12-29T03:55:43;4.13;;;2.30;;
16101;SDS011;56411;52.964;10.540;2022-12-29T03:58:10;5.87;;;2.47;;
16101;SDS011;56411;52.964;10.540;2022-12-29T04:00:37;4.90;;;2.30;;
16101;SDS011;56411;52.964;10.540;2022-12-29T04:03:04;4.30;;;2.23;;
16101;SDS011;56411;52.964;10.540;2022-12-29T04:05:32;6.40;;;2.60;;
16101;SDS011;56411;52.964;10.540;2022-12-29T04:07:59;3.83;;;2.40;;
16101;SDS011;56411;52.964;10.540;2022-12-29T04:10:26;5.00;;;2.33;;
16101;SDS011;56411;52.964;10.540;2022-12-29T04:12:53;4.77;;;2.40;;
16101;SDS011;56411;52.964;10.540;2022-12-29T04:15:20;3.97;;;2.30;;
16101;SDS011;56411;52.964;10.540;2022-12-29T04:17:49;4.57;;;2.40;;
16101;SDS011;56411;52.964;10.540;2022-12-29T04:20:16;4.67;;;2.67;;
16101;SDS011;56411;52.964;10.540;2022-12-29T04:23:01;7.17;;;2.60;;
16101;SDS011;56411;52.964;10.540;2022-12-29T04:25:30;4.30;;;2.37;;
16101;SDS011;56411;52.964;10.540;2022-12-29T04:27:57;4.43;;;2.50;;
16101;SDS011;56411;52.964;10.540;2022-12-29T04:30:24;6.77;;;2.70;;
16101;SDS011;56411;52.964;10.540;2022-12-29T04:32:51;6.00;;;2.73;;
16101;SDS011;56411;52.964;10.540;2022-12-29T04:35:18;7.43;;;2.73;;
16101;SDS011;56411;52.964;10.540;2022-12-29T04:37:45;6.30;;;2.80;;
16101;SDS011;56411;52.964;10.540;2022-12-29T04:40:14;8.10;;;2.80;;
16101;SDS011;56411;52.964;10.540;2022-12-29T04:42:41;4.57;;;2.33;;
16101;SDS011;56411;52.964;10.540;2022-12-29T04:45:08;4.93;;;2.50;;
16101;SDS011;56411;52.964;10.540;2022-12-29T04:47:35;5.57;;;2.77;;
16101;SDS011;56411;52.964;10.540;2022-12-29T04:50:03;6.83;;;2.90;;
16101;SDS011;56411;52.964;10.540;2022-12-29T04:52:30;5.40;;;2.80;;
16101;SDS011;56411;52.964;10.540;2022-12-29T04:54:57;5.20;;;2.80;;
16101;SDS011;56411;52.964;10.540;2022-12-29T04:57:26;7.43;;;2.80;;
16101;SDS011;56411;52.964;10.540;2022-12-29T04:59:53;6.40;;;3.10;;
16101;SDS011;56411;52.964;10.540;2022-12-29T05:02:20;8.00;;;3.43;;
16101;SDS011;56411;52.964;10.540;2022-12-29T05:04:50;5.10;;;2.70;;
16101;SDS011;56411;52.964;10.540;2022-12-29T05:07:16;5.80;;;2.80;;
16101;SDS011;56411;52.964;10.540;2022-12-29T05:09:45;6.73;;;2.80;;
16101;SDS011;56411;52.964;10.540;2022-12-29T05:12:12;7.20;;;2.70;;
16101;SDS011;56411;52.964;10.540;2022-12-29T05:14:40;4.80;;;2.67;;
16101;SDS011;56411;52.964;10.540;2022-12-29T05:17:07;5.90;;;2.70;;
16101;SDS011;56411;52.964;10.540;2022-12-29T05:19:34;9.10;;;2.80;;
16101;SDS011;56411;52.964;10.540;2022-12-29T05:22:01;6.87;;;2.63;;
16101;SDS011;56411;52.964;10.540;2022-12-29T05:24:28;4.77;;;2.23;;
16101;SDS011;56411;52.964;10.540;2022-12-29T05:26:55;4.57;;;2.30;;
16101;SDS011;56411;52.964;10.540;2022-12-29T05:29:22;4.80;;;2.30;;
16101;SDS011;56411;52.964;10.540;2022-12-29T05:31:50;4.30;;;2.23;;
16101;SDS011;56411;52.964;10.540;2022-12-29T05:34:17;4.93;;;2.27;;
16101;SDS011;56411;52.964;10.540;2022-12-29T05:36:44;5.77;;;2.30;;
16101;SDS011;56411;52.964;10.540;2022-12-29T05:39:11;3.07;;;1.97;;
16101;SDS011;56411;52.964;10.540;2022-12-29T05:41:38;3.93;;;2.17;;
16101;SDS011;56411;52.964;10.540;2022-12-29T05:44:05;3.27;;;2.10;;
16101;SDS011;56411;52.964;10.540;2022-12-29T05:46:32;5.20;;;2.30;;
16101;SDS011;56411;52.964;10.540;2022-12-29T05:49:01;5.20;;;2.20;;
16101;SDS011;56411;52.964;10.540;2022-12-29T05:51:28;5.60;;;2.10;;
16101;SDS011;56411;52.964;10.540;2022-12-29T05:53:55;3.53;;;1.97;;
16101;SDS011;56411;52.964;10.540;2022-12-29T05:56:22;4.70;;;2.10;;
16101;SDS011;56411;52.964;10.540;2022-12-29T05:58:49;4.83;;;2.23;;
16101;SDS011;56411;52.964;10.540;2022-12-29T06:01:16;5.53;;;2.00;;
16101;SDS011;56411;52.964;10.540;2022-12-29T06:03:43;2.73;;;1.93;;
16101;SDS011;56411;52.964;10.540;2022-12-29T06:06:12;6.73;;;1.90;;
16101;SDS011;56411;52.964;10.540;2022-12-29T06:08:39;1.97;;;1.70;;
16101;SDS011;56411;52.964;10.540;2022-12-29T06:11:06;3.33;;;1.90;;
16101;SDS011;56411;52.964;10.540;2022-12-29T06:13:32;5.10;;;2.20;;
16101;SDS011;56411;52.964;10.540;2022-12-29T06:15:59;2.77;;;1.67;;
16101;SDS011;56411;52.964;10.540;2022-12-29T06:18:27;3.20;;;1.80;;
16101;SDS011;56411;52.964;10.540;2022-12-29T06:20:54;2.70;;;1.60;;
16101;SDS011;56411;52.964;10.540;2022-12-29T06:23:26;3.43;;;1.90;;
16101;SDS011;56411;52.964;10.540;2022-12-29T06:25:53;2.47;;;1.77;;
16101;SDS011;56411;52.964;10.540;2022-12-29T06:28:20;3.03;;;1.60;;
16101;SDS011;56411;52.964;10.540;2022-12-29T06:30:47;2.93;;;1.77;;
16101;SDS011;56411;52.964;10.540;2022-12-29T06:33:14;2.37;;;1.70;;
16101;SDS011;56411;52.964;10.540;2022-12-29T06:35:41;2.63;;;1.70;;
16101;SDS011;56411;52.964;10.540;2022-12-29T06:38:09;2.87;;;1.80;;
16101;SDS011;56411;52.964;10.540;2022-12-29T06:40:37;3.07;;;1.80;;
16101;SDS011;56411;52.964;10.540;2022-12-29T06:43:06;3.47;;;1.90;;
16101;SDS011;56411;52.964;10.540;2022-12-29T06:45:33;3.00;;;1.67;;
16101;SDS011;56411;52.964;10.540;2022-12-29T06:48:00;3.70;;;1.60;;
16101;SDS011;56411;52.964;10.540;2022-12-29T06:50:27;2.63;;;1.60;;
16101;SDS011;56411;52.964;10.540;2022-12-29T06:52:54;1.70;;;1.50;;
16101;SDS011;56411;52.964;10.540;2022-12-29T06:55:21;4.43;;;1.50;;
16101;SDS011;56411;52.964;10.540;2022-12-29T06:57:49;1.60;;;1.50;;
16101;SDS011;56411;52.964;10.540;2022-12-29T07:00:16;2.10;;;1.40;;
16101;SDS011;56411;52.964;10.540;2022-12-29T07:02:43;2.17;;;1.40;;
16101;SDS011;56411;52.964;10.540;2022-12-29T07:05:10;2.80;;;1.60;;
16101;SDS011;56411;52.964;10.540;2022-12-29T07:07:38;3.67;;;1.70;;
16101;SDS011;56411;52.964;10.540;2022-12-29T07:10:06;2.23;;;1.50;;
16101;SDS011;56411;52.964;10.540;2022-12-29T07:12:33;4.20;;;1.70;;
16101;SDS011;56411;52.964;10.540;2022-12-29T07:15:02;3.53;;;1.70;;
16101;SDS011;56411;52.964;10.540;2022-12-29T07:17:29;2.77;;;1.50;;
16101;SDS011;56411;52.964;10.540;2022-12-29T07:19:56;3.97;;;1.70;;
16101;SDS011;56411;52.964;10.540;2022-12-29T07:22:23;3.13;;;1.50;;
16101;SDS011;56411;52.964;10.540;2022-12-29T07:24:50;4.03;;;1.70;;
16101;SDS011;56411;52.964;10.540;2022-12-29T07:27:17;1.30;;;1.20;;
16101;SDS011;56411;52.964;10.540;2022-12-29T07:29:43;2.57;;;1.50;;
16101;SDS011;56411;52.964;10.540;2022-12-29T07:32:12;3.60;;;1.53;;
16101;SDS011;56411;52.964;10.540;2022-12-29T07:34:39;4.80;;;1.53;;
16101;SDS011;56411;52.964;10.540;2022-12-29T07:37:06;1.47;;;1.30;;
16101;SDS011;56411;52.964;10.540;2022-12-29T07:39:33;2.60;;;1.20;;
16101;SDS011;56411;52.964;10.540;2022-12-29T07:42:00;2.87;;;1.30;;
16101;SDS011;56411;52.964;10.540;2022-12-29T07:44:27;4.53;;;1.37;;
16101;SDS011;56411;52.964;10.540;2022-12-29T07:46:54;2.17;;;1.07;;
16101;SDS011;56411;52.964;10.540;2022-12-29T07:49:22;1.30;;;1.20;;
16101;SDS011;56411;52.964;10.540;2022-12-29T07:51:49;3.27;;;1.20;;
16101;SDS011;56411;52.964;10.540;2022-12-29T07:54:16;3.73;;;1.47;;
16101;SDS011;56411;52.964;10.540;2022-12-29T07:56:44;4.77;;;1.40;;
16101;SDS011;56411;52.964;10.540;2022-12-29T07:59:11;3.23;;;1.23;;
16101;SDS011;56411;52.964;10.540;2022-12-29T08:01:38;2.47;;;1.30;;
16101;SDS011;56411;52.964;10.540;2022-12-29T08:04:05;4.20;;;1.30;;
16101;SDS011;56411;52.964;10.540;2022-12-29T08:06:34;3.90;;;1.30;;
16101;SDS011;56411;52.964;10.540;2022-12-29T08:09:02;3.87;;;1.23;;
16101;SDS011;56411;52.964;10.540;2022-12-29T08:11:29;2.17;;;1.30;;
16101;SDS011;56411;52.964;10.540;2022-12-29T08:13:56;1.27;;;1.10;;
16101;SDS011;56411;52.964;10.540;2022-12-29T08:16:23;2.27;;;1.10;;
16101;SDS011;56411;52.964;10.540;2022-12-29T08:18:50;3.20;;;1.40;;
16101;SDS011;56411;52.964;10.540;2022-12-29T08:21:17;2.37;;;1.20;;
16101;SDS011;56411;52.964;10.540;2022-12-29T08:23:45;2.97;;;1.10;;
16101;SDS011;56411;52.964;10.540;2022-12-29T08:26:13;2.53;;;1.10;;
16101;SDS011;56411;52.964;10.540;2022-12-29T08:28:40;3.53;;;1.30;;
16101;SDS011;56411;52.964;10.540;2022-12-29T08:31:07;3.30;;;1.13;;
16101;SDS011;56411;52.964;10.540;2022-12-29T08:33:35;4.30;;;1.03;;
16101;SDS011;56411;52.964;10.540;2022-12-29T08:36:02;2.97;;;1.20;;
16101;SDS011;56411;52.964;10.540;2022-12-29T08:38:30;3.03;;;1.10;;
16101;SDS011;56411;52.964;10.540;2022-12-29T08:40:59;3.20;;;1.03;;
16101;SDS011;56411;52.964;10.540;2022-12-29T08:43:27;2.53;;;1.00;;
16101;SDS011;56411;52.964;10.540;2022-12-29T08:45:54;3.17;;;1.23;;
16101;SDS011;56411;52.964;10.540;2022-12-29T08:48:23;2.87;;;1.00;;
16101;SDS011;56411;52.964;10.540;2022-12-29T08:50:50;2.47;;;1.37;;
16101;SDS011;56411;52.964;10.540;2022-12-29T08:53:17;6.77;;;2.70;;
16101;SDS011;56411;52.964;10.540;2022-12-29T08:55:45;4.03;;;2.10;;
16101;SDS011;56411;52.964;10.540;2022-12-29T08:58:17;2.73;;;1.40;;
16101;SDS011;56411;52.964;10.540;2022-12-29T09:00:44;3.03;;;1.30;;
16101;SDS011;56411;52.964;10.540;2022-12-29T09:03:11;3.23;;;1.50;;
16101;SDS011;56411;52.964;10.540;2022-12-29T09:05:38;3.47;;;1.13;;
16101;SDS011;56411;52.964;10.540;2022-12-29T09:08:05;2.70;;;1.43;;
16101;SDS011;56411;52.964;10.540;2022-12-29T09:10:31;7.20;;;1.50;;
16101;SDS011;56411;52.964;10.540;2022-12-29T09:12:58;4.27;;;1.50;;
16101;SDS011;56411;52.964;10.540;2022-12-29T09:15:27;8.27;;;1.67;;
16101;SDS011;56411;52.964;10.540;2022-12-29T09:17:54;2.77;;;1.20;;
16101;SDS011;56411;52.964;10.540;2022-12-29T09:20:21;4.83;;;1.37;;
16101;SDS011;56411;52.964;10.540;2022-12-29T09:22:48;2.37;;;1.20;;
16101;SDS011;56411;52.964;10.540;2022-12-29T09:25:15;3.77;;;1.47;;
16101;SDS011;56411;52.964;10.540;2022-12-29T09:27:42;6.03;;;2.00;;
16101;SDS011;56411;52.964;10.540;2022-12-29T09:30:10;4.33;;;1.50;;
16101;SDS011;56411;52.964;10.540;2022-12-29T09:32:40;7.40;;;1.80;;
16101;SDS011;56411;52.964;10.540;2022-12-29T09:35:07;6.20;;;1.70;;
16101;SDS011;56411;52.964;10.540;2022-12-29T09:37:34;3.37;;;1.60;;
16101;SDS011;56411;52.964;10.540;2022-12-29T09:40:02;5.10;;;1.80;;
16101;SDS011;56411;52.964;10.540;2022-12-29T09:42:29;4.50;;;1.57;;
16101;SDS011;56411;52.964;10.540;2022-12-29T09:45:08;6.00;;;1.70;;
16101;SDS011;56411;52.964;10.540;2022-12-29T09:47:42;3.43;;;1.60;;
16101;SDS011;56411;52.964;10.540;2022-12-29T09:50:13;4.17;;;1.40;;
16101;SDS011;56411;52.964;10.540;2022-12-29T09:52:48;6.63;;;1.60;;
16101;SDS011;56411;52.964;10.540;2022-12-29T09:55:20;4.10;;;1.53;;
16101;SDS011;56411;52.964;10.540;2022-12-29T09:57:52;4.53;;;1.40;;
16101;SDS011;56411;52.964;10.540;2022-12-29T10:00:23;5.40;;;1.63;;
16101;SDS011;56411;52.964;10.540;2022-12-29T10:03:03;5.10;;;1.67;;
16101;SDS011;56411;52.964;10.540;2022-12-29T10:05:39;5.47;;;1.60;;
16101;SDS011;56411;52.964;10.540;2022-12-29T10:08:17;3.97;;;1.80;;
16101;SDS011;56411;52.964;10.540;2022-12-29T10:10:54;7.10;;;2.93;;
16101;SDS011;56411;52.964;10.540;2022-12-29T10:13:26;7.20;;;2.53;;
16101;SDS011;56411;52.964;10.540;2022-12-29T10:16:02;5.57;;;2.30;;
16101;SDS011;56411;52.964;10.540;2022-12-29T10:21:46;5.10;;;2.13;;
16101;SDS011;56411;52.964;10.540;2022-12-29T10:24:23;5.50;;;1.70;;
16101;SDS011;56411;52.964;10.540;2022-12-29T10:26:53;6.27;;;2.03;;
16101;SDS011;56411;52.964;10.540;2022-12-29T10:29:23;6.13;;;1.80;;
16101;SDS011;56411;52.964;10.540;2022-12-29T10:31:57;5.13;;;1.87;;
16101;SDS011;56411;52.964;10.540;2022-12-29T10:34:28;6.57;;;1.97;;
16101;SDS011;56411;52.964;10.540;2022-12-29T10:36:59;3.87;;;1.90;;
16101;SDS011;56411;52.964;10.540;2022-12-29T10:39:32;5.77;;;1.63;;
16101;SDS011;56411;52.964;10.540;2022-12-29T10:42:07;6.20;;;1.97;;
16101;SDS011;56411;52.964;10.540;2022-12-29T10:44:40;7.43;;;2.20;;
16101;SDS011;56411;52.964;10.540;2022-12-29T10:47:10;5.97;;;1.90;;
16101;SDS011;56411;52.964;10.540;2022-12-29T10:49:42;6.90;;;2.10;;
16101;SDS011;56411;52.964;10.540;2022-12-29T10:52:13;5.97;;;2.00;;
16101;SDS011;56411;52.964;10.540;2022-12-29T10:54:44;7.17;;;2.20;;
16101;SDS011;56411;52.964;10.540;2022-12-29T10:57:16;6.97;;;1.90;;
16101;SDS011;56411;52.964;10.540;2022-12-29T10:59:50;6.60;;;1.90;;
16101;SDS011;56411;52.964;10.540;2022-12-29T11:02:34;8.00;;;2.13;;
16101;SDS011;56411;52.964;10.540;2022-12-29T11:05:29;7.87;;;1.90;;
16101;SDS011;56411;52.964;10.540;2022-12-29T11:08:02;6.00;;;1.70;;
16101;SDS011;56411;52.964;10.540;2022-12-29T11:10:35;5.50;;;1.93;;
16101;SDS011;56411;52.964;10.540;2022-12-29T11:13:11;5.53;;;1.90;;
16101;SDS011;56411;52.964;10.540;2022-12-29T11:15:40;7.40;;;2.10;;
16101;SDS011;56411;52.964;10.540;2022-12-29T11:18:17;5.27;;;1.57;;
16101;SDS011;56411;52.964;10.540;2022-12-29T11:20:48;6.53;;;1.80;;
16101;SDS011;56411;52.964;10.540;2022-12-29T11:23:24;5.00;;;1.70;;
16101;SDS011;56411;52.964;10.540;2022-12-29T11:26:11;6.30;;;1.70;;
16101;SDS011;56411;52.964;10.540;2022-12-29T11:28:42;7.50;;;1.80;;
16101;SDS011;56411;52.964;10.540;2022-12-29T11:31:10;6.30;;;1.87;;
16101;SDS011;56411;52.964;10.540;2022-12-29T11:33:42;9.07;;;1.90;;
16101;SDS011;56411;52.964;10.540;2022-12-29T11:36:11;8.60;;;1.83;;
16101;SDS011;56411;52.964;10.540;2022-12-29T11:38:42;4.93;;;1.70;;
16101;SDS011;56411;52.964;10.540;2022-12-29T11:41:19;8.80;;;1.90;;
16101;SDS011;56411;52.964;10.540;2022-12-29T11:43:49;7.87;;;1.90;;
16101;SDS011;56411;52.964;10.540;2022-12-29T11:46:17;8.43;;;2.00;;
16101;SDS011;56411;52.964;10.540;2022-12-29T11:48:46;4.87;;;1.43;;
16101;SDS011;56411;52.964;10.540;2022-12-29T11:51:21;4.25;;;1.50;;
16101;SDS011;56411;52.964;10.540;2022-12-29T11:53:50;6.60;;;1.73;;
16101;SDS011;56411;52.964;10.540;2022-12-29T11:56:22;5.30;;;1.67;;
16101;SDS011;56411;52.964;10.540;2022-12-29T12:01:50;8.38;;;2.10;;
16101;SDS011;56411;52.964;10.540;2022-12-29T12:04:18;7.03;;;1.77;;
16101;SDS011;56411;52.964;10.540;2022-12-29T12:06:53;8.03;;;1.97;;
16101;SDS011;56411;52.964;10.540;2022-12-29T12:09:27;7.20;;;1.93;;
16101;SDS011;56411;52.964;10.540;2022-12-29T12:11:58;5.33;;;1.90;;
16101;SDS011;56411;52.964;10.540;2022-12-29T12:14:27;4.83;;;1.70;;
16101;SDS011;56411;52.964;10.540;2022-12-29T12:16:59;8.57;;;1.98;;
16101;SDS011;56411;52.964;10.540;2022-12-29T12:19:31;6.37;;;1.63;;
16101;SDS011;56411;52.964;10.540;2022-12-29T12:22:03;7.72;;;1.95;;
16101;SDS011;56411;52.964;10.540;2022-12-29T12:24:39;7.32;;;2.08;;
16101;SDS011;56411;52.964;10.540;2022-12-29T12:27:12;5.37;;;1.60;;
16101;SDS011;56411;52.964;10.540;2022-12-29T12:29:46;6.72;;;1.70;;
16101;SDS011;56411;52.964;10.540;2022-12-29T12:32:20;9.03;;;2.00;;
16101;SDS011;56411;52.964;10.540;2022-12-29T12:34:52;6.63;;;1.95;;
16101;SDS011;56411;52.964;10.540;2022-12-29T12:37:28;7.70;;;1.92;;
16101;SDS011;56411;52.964;10.540;2022-12-29T12:43:19;6.63;;;2.00;;
16101;SDS011;56411;52.964;10.540;2022-12-29T12:45:59;7.23;;;2.03;;
16101;SDS011;56411;52.964;10.540;2022-12-29T12:48:42;7.90;;;2.00;;
16101;SDS011;56411;52.964;10.540;2022-12-29T12:51:19;7.63;;;2.20;;
16101;SDS011;56411;52.964;10.540;2022-12-29T12:54:00;9.20;;;2.13;;
16101;SDS011;56411;52.964;10.540;2022-12-29T12:56:47;6.00;;;2.10;;
16101;SDS011;56411;52.964;10.540;2022-12-29T12:59:30;6.80;;;2.28;;
16101;SDS011;56411;52.964;10.540;2022-12-29T13:02:11;6.87;;;2.03;;
16101;SDS011;56411;52.964;10.540;2022-12-29T13:07:43;8.00;;;2.30;;
16101;SDS011;56411;52.964;10.540;2022-12-29T13:10:38;6.53;;;1.93;;
16101;SDS011;56411;52.964;10.540;2022-12-29T13:13:25;5.87;;;1.80;;
16101;SDS011;56411;52.964;10.540;2022-12-29T13:16:03;6.83;;;1.93;;
16101;SDS011;56411;52.964;10.540;2022-12-29T13:18:36;4.17;;;1.80;;
16101;SDS011;56411;52.964;10.540;2022-12-29T13:21:18;6.67;;;2.00;;
16101;SDS011;56411;52.964;10.540;2022-12-29T13:23:55;8.73;;;2.50;;
16101;SDS011;56411;52.964;10.540;2022-12-29T13:26:28;5.67;;;2.10;;
16101;SDS011;56411;52.964;10.540;2022-12-29T13:29:03;6.93;;;2.40;;
16101;SDS011;56411;52.964;10.540;2022-12-29T13:31:41;7.45;;;2.63;;
16101;SDS011;56411;52.964;10.540;2022-12-29T13:34:16;6.93;;;2.30;;
16101;SDS011;56411;52.964;10.540;2022-12-29T13:36:51;6.60;;;2.23;;
16101;SDS011;56411;52.964;10.540;2022-12-29T13:39:21;6.13;;;2.10;;
16101;SDS011;56411;52.964;10.540;2022-12-29T13:41:53;5.17;;;2.03;;
16101;SDS011;56411;52.964;10.540;2022-12-29T13:44:22;18.90;;;7.60;;
16101;SDS011;56411;52.964;10.540;2022-12-29T13:46:53;14.77;;;6.37;;
16101;SDS011;56411;52.964;10.540;2022-12-29T13:49:23;11.25;;;3.05;;
16101;SDS011;56411;52.964;10.540;2022-12-29T13:51:52;11.03;;;3.23;;
16101;SDS011;56411;52.964;10.540;2022-12-29T13:54:29;8.38;;;2.88;;
16101;SDS011;56411;52.964;10.540;2022-12-29T13:57:06;6.78;;;2.70;;
16101;SDS011;56411;52.964;10.540;2022-12-29T13:59:40;10.97;;;3.30;;
16101;SDS011;56411;52.964;10.540;2022-12-29T14:02:19;9.57;;;3.10;;
16101;SDS011;56411;52.964;10.540;2022-12-29T14:04:56;8.37;;;3.07;;
16101;SDS011;56411;52.964;10.540;2022-12-29T14:07:25;7.50;;;2.90;;
16101;SDS011;56411;52.964;10.540;2022-12-29T14:09:53;9.00;;;3.20;;
16101;SDS011;56411;52.964;10.540;2022-12-29T14:12:27;10.97;;;3.10;;
16101;SDS011;56411;52.964;10.540;2022-12-29T14:15:06;8.63;;;2.60;;
16101;SDS011;56411;52.964;10.540;2022-12-29T14:18:00;9.63;;;3.20;;
16101;SDS011;56411;52.964;10.540;2022-12-29T14:20:36;8.75;;;2.50;;
16101;SDS011;56411;52.964;10.540;2022-12-29T14:23:15;7.88;;;2.80;;
16101;SDS011;56411;52.964;10.540;2022-12-29T14:25:52;8.65;;;2.80;;
16101;SDS011;56411;52.964;10.540;2022-12-29T14:28:28;6.20;;;2.30;;
16101;SDS011;56411;52.964;10.540;2022-12-29T14:30:57;7.00;;;2.40;;
16101;SDS011;56411;52.964;10.540;2022-12-29T14:33:28;5.23;;;2.30;;
16101;SDS011;56411;52.964;10.540;2022-12-29T14:35:56;8.33;;;2.40;;
16101;SDS011;56411;52.964;10.540;2022-12-29T14:38:44;8.07;;;2.70;;
16101;SDS011;56411;52.964;10.540;2022-12-29T14:41:16;6.57;;;2.27;;
16101;SDS011;56411;52.964;10.540;2022-12-29T14:44:01;9.23;;;2.70;;
16101;SDS011;56411;52.964;10.540;2022-12-29T14:46:45;5.73;;;2.57;;
16101;SDS011;56411;52.964;10.540;2022-12-29T14:49:16;6.57;;;2.17;;
16101;SDS011;56411;52.964;10.540;2022-12-29T14:51:47;5.47;;;2.43;;
16101;SDS011;56411;52.964;10.540;2022-12-29T14:57:09;6.57;;;2.30;;
16101;SDS011;56411;52.964;10.540;2022-12-29T14:59:42;11.80;;;2.40;;
16101;SDS011;56411;52.964;10.540;2022-12-29T15:02:13;7.37;;;2.20;;
16101;SDS011;56411;52.964;10.540;2022-12-29T15:04:44;6.80;;;2.17;;
16101;SDS011;56411;52.964;10.540;2022-12-29T15:07:13;9.23;;;2.30;;
16101;SDS011;56411;52.964;10.540;2022-12-29T15:09:41;6.17;;;2.27;;
16101;SDS011;56411;52.964;10.540;2022-12-29T15:12:21;5.67;;;2.40;;
16101;SDS011;56411;52.964;10.540;2022-12-29T15:14:54;5.80;;;2.13;;
16101;SDS011;56411;52.964;10.540;2022-12-29T15:17:24;7.03;;;2.00;;